TimeCST,TemperatureF,Dew PointF,Humidity,Sea Level PressureIn,VisibilityMPH,Wind Direction,Wind SpeedMPH,Gust SpeedMPH,PrecipitationIn,Events,Conditions,WindDirDegrees,DateUTC
12:05 AM,45.0,42.1,90,29.99,10.0,NNW,12.7,-,N/A,,Overcast,340,2014-03-07 06:05:00
12:12 AM,45.0,42.1,90,29.98,10.0,NNW,11.5,-,N/A,,Overcast,340,2014-03-07 06:12:00
12:18 AM,45.0,42.1,90,29.98,10.0,NNW,11.5,-,N/A,,Overcast,340,2014-03-07 06:18:00
12:53 AM,45.0,42.1,90,29.99,10.0,NNW,11.5,-,N/A,,Overcast,340,2014-03-07 06:53:00
1:06 AM,45.0,41.0,86,29.99,10.0,North,11.5,-,N/A,,Overcast,350,2014-03-07 07:06:00
1:44 AM,44.1,39.9,85,29.99,10.0,NNW,13.8,-,N/A,,Overcast,330,2014-03-07 07:44:00
1:53 AM,44.1,41.0,89,29.99,10.0,NNW,12.7,-,N/A,,Overcast,330,2014-03-07 07:53:00
2:19 AM,44.1,39.9,85,29.99,10.0,NNW,12.7,-,N/A,,Overcast,340,2014-03-07 08:19:00
2:53 AM,43.0,39.0,86,30.00,10.0,NNW,12.7,-,N/A,,Overcast,340,2014-03-07 08:53:00
3:27 AM,43.0,39.0,86,30.02,10.0,NW,18.4,-,N/A,,Overcast,320,2014-03-07 09:27:00
3:53 AM,43.0,37.9,82,30.02,10.0,NNW,17.3,-,N/A,,Overcast,330,2014-03-07 09:53:00
4:11 AM,43.0,37.9,82,30.01,10.0,North,16.1,-,N/A,,Overcast,350,2014-03-07 10:11:00
4:53 AM,43.0,37.9,82,30.03,10.0,NNW,15.0,-,N/A,,Overcast,340,2014-03-07 10:53:00
5:15 AM,42.1,37.9,85,30.03,10.0,North,11.5,-,N/A,,Overcast,350,2014-03-07 11:15:00
5:53 AM,42.1,37.9,85,30.04,10.0,NNW,11.5,-,N/A,,Overcast,340,2014-03-07 11:53:00
6:53 AM,43.0,37.9,82,30.06,10.0,NNW,10.4,-,N/A,,Overcast,340,2014-03-07 12:53:00
7:53 AM,44.1,39.0,82,30.08,10.0,NNW,10.4,-,N/A,,Overcast,340,2014-03-07 13:53:00
8:53 AM,46.0,39.0,76,30.09,10.0,North,8.1,-,N/A,,Overcast,10,2014-03-07 14:53:00
9:53 AM,48.9,39.9,71,30.09,10.0,NNE,12.7,-,N/A,,Mostly Cloudy,20,2014-03-07 15:53:00
10:53 AM,50.0,39.9,68,30.09,10.0,NNE,13.8,-,N/A,,Mostly Cloudy,30,2014-03-07 16:53:00
11:53 AM,53.1,41.0,64,30.07,10.0,NE,11.5,-,N/A,,Mostly Cloudy,40,2014-03-07 17:53:00
12:53 PM,55.9,41.0,57,30.06,10.0,NE,8.1,-,N/A,,Scattered Clouds,40,2014-03-07 18:53:00
1:53 PM,55.9,41.0,57,30.04,10.0,North,4.6,-,N/A,,Scattered Clouds,360,2014-03-07 19:53:00
2:53 PM,57.0,43.0,59,30.04,10.0,ENE,9.2,-,N/A,,Clear,70,2014-03-07 20:53:00
3:53 PM,57.9,44.1,60,30.04,10.0,East,8.1,-,N/A,,Clear,100,2014-03-07 21:53:00
4:53 PM,57.0,46.0,67,30.04,10.0,SE,6.9,-,N/A,,Clear,140,2014-03-07 22:53:00
5:53 PM,54.0,45.0,72,30.05,10.0,Calm,Calm,-,N/A,,Clear,0,2014-03-07 23:53:00
6:53 PM,51.1,45.0,80,30.06,10.0,WSW,4.6,-,N/A,,Clear,240,2014-03-08 00:53:00
7:53 PM,48.9,44.1,83,30.07,10.0,SW,3.5,-,N/A,,Clear,230,2014-03-08 01:53:00
8:53 PM,48.9,45.0,86,30.09,10.0,WSW,4.6,-,N/A,,Clear,240,2014-03-08 02:53:00
9:53 PM,46.9,44.1,90,30.08,10.0,Calm,Calm,-,N/A,,Clear,0,2014-03-08 03:53:00
10:53 PM,46.0,44.1,93,30.10,10.0,Calm,Calm,-,N/A,,Clear,0,2014-03-08 04:53:00
11:53 PM,45.0,43.0,93,30.10,8.0,West,3.5,-,N/A,,Clear,270,2014-03-08 05:53:00